logo
Search for airport 
image banner adimage banner adimage banner ad
image banner ad

WARA - Malang / Abdulrachman Saleh

Located in Malang, Indonesia

ICAO - WARA, IATA - MLG

Data provided by Airmate  

General information

Coordinates: S7°55'46" E112°42'43"
Elevation is 1726 feet MSL.
 
View others Airports in Jawa Timur

Operational data

Special qualification required
Current time UTC:
Current local time:
Weather at : WARR - Surabaya/Juanda ( 62 km )
METAR: WARR 152100Z 25004KT 7000 SCT020CB 27/26 Q1010 NOSIG
TAF: TAF WARR 151700Z 1518/1618 25003KT 8000 SCT020 PROB40 TEMPO 1518/1520 4000 RA FEW018CB BKN020 BECMG 1520/1522 5000 HZ BECMG 1600/1602 07010KT 9999 NSW FEW020
View NOTAMs / SUP AIP / TFR affecting this airport [VIEW]
Communications frequencies: [VIEW]

Runways:

RWY identifierQFULength (ft)Width (ft)SurfaceLDA (ft)
17166°8202131ASP
35346°8202131ASP

Airport contact information

Address: Malang Indonesia

Satellite view of WARA